createdAt,value
2023-04-16T00:01:05.741Z,97945.56
2023-04-16T00:03:33.044Z,98119.63
2023-04-16T00:05:59.924Z,98181.59
2023-04-16T00:08:26.696Z,98187.31
2023-04-16T00:11:18.090Z,98230.41
2023-04-16T00:13:45.037Z,97996.06
2023-04-16T00:16:11.861Z,98237.97
2023-04-16T00:18:38.559Z,98161.81
2023-04-16T00:21:05.568Z,98186.28
2023-04-16T00:23:32.486Z,98095.50
2023-04-16T00:26:00.289Z,98093.47
2023-04-16T00:28:27.738Z,98204.03
2023-04-16T00:30:55.099Z,98199.94
2023-04-16T00:33:21.855Z,98094.50
2023-04-16T00:35:49.351Z,98164.25
2023-04-16T00:38:47.299Z,98239.34
2023-04-16T00:41:14.465Z,97958.16
2023-04-16T00:43:44.055Z,97775.69
2023-04-16T00:46:11.904Z,98255.69
2023-04-16T00:48:42.546Z,97803.78
2023-04-16T00:51:10.011Z,98071.69
2023-04-16T00:53:37.282Z,97735.97
2023-04-16T00:56:06.195Z,98054.78
2023-04-16T00:58:35.194Z,97957.34
2023-04-16T01:01:02.333Z,98270.84
2023-04-16T01:03:39.971Z,98172.66
2023-04-16T01:06:07.856Z,97993.59
2023-04-16T01:08:36.860Z,97959.00
2023-04-16T01:11:04.347Z,98015.22
2023-04-16T01:13:31.672Z,98104.53
2023-04-16T01:15:58.511Z,98101.88
2023-04-16T01:18:26.522Z,98103.50
2023-04-16T01:20:53.275Z,97967.84
2023-04-16T01:23:20.795Z,97809.78
2023-04-16T01:25:49.803Z,98276.56
2023-04-16T01:28:17.442Z,98282.88
2023-04-16T01:30:44.588Z,98100.03
2023-04-16T01:33:22.376Z,97980.91
2023-04-16T01:35:49.159Z,98271.25
2023-04-16T01:38:16.070Z,98202.06
2023-04-16T01:40:43.127Z,97993.06
2023-04-16T01:43:09.943Z,98148.94
2023-04-16T01:45:36.898Z,98124.91
2023-04-16T01:48:18.480Z,98298.00
2023-04-16T01:50:45.283Z,98283.28
2023-04-16T01:53:11.937Z,98137.94
2023-04-16T01:55:38.816Z,98232.44
2023-04-16T01:58:07.499Z,98275.53
2023-04-16T02:00:35.955Z,98309.41
2023-04-16T02:03:02.967Z,98126.47
2023-04-16T02:05:30.120Z,98277.97
2023-04-16T02:07:58.113Z,98299.84
2023-04-16T02:10:25.099Z,97962.75
2023-04-16T02:12:52.060Z,98279.63
2023-04-16T02:15:18.969Z,98137.97
2023-04-16T02:17:46.894Z,98135.94
2023-04-16T02:20:13.774Z,98128.19
2023-04-16T02:22:51.272Z,98209.41
2023-04-16T02:25:20.898Z,98205.31
2023-04-16T02:27:48.443Z,98208.34
2023-04-16T02:30:44.675Z,98302.06
2023-04-16T02:33:26.904Z,98102.25
2023-04-16T02:36:01.029Z,98296.78
2023-04-16T02:38:27.802Z,98249.00
2023-04-16T02:41:13.876Z,98295.16
2023-04-16T02:43:41.032Z,98287.78
2023-04-16T02:46:08.889Z,97943.41
2023-04-16T02:48:59.676Z,98286.97
2023-04-16T02:51:26.661Z,98198.78
2023-04-16T02:54:34.487Z,98289.19
2023-04-16T02:57:02.647Z,98158.47
2023-04-16T02:59:29.229Z,98169.31
2023-04-16T03:01:56.147Z,98136.50
2023-04-16T03:04:25.858Z,98066.31
2023-04-16T03:06:55.758Z,98255.94
2023-04-16T03:09:22.407Z,98213.28
2023-04-16T03:11:49.034Z,98202.66
2023-04-16T03:14:15.786Z,98307.19
2023-04-16T03:16:42.424Z,98294.31
2023-04-16T03:19:09.268Z,98289.84
2023-04-16T03:21:56.252Z,98298.00
2023-04-16T03:24:22.934Z,98306.16
2023-04-16T03:26:49.749Z,98118.31
2023-04-16T03:30:02.372Z,98300.44
2023-04-16T03:32:30.552Z,98219.56
2023-04-16T03:34:57.458Z,98241.44
2023-04-16T03:37:24.394Z,98108.78
2023-04-16T03:39:51.523Z,98068.41
2023-04-16T03:42:18.549Z,98260.38
2023-04-16T03:44:45.607Z,98235.03
2023-04-16T03:47:13.456Z,98175.00
2023-04-16T03:49:40.239Z,98186.03
2023-04-16T03:52:07.338Z,98246.09
2023-04-16T03:54:34.295Z,98050.97
2023-04-16T03:57:13.420Z,98041.28
2023-04-16T03:59:40.103Z,98245.75
2023-04-16T04:02:07.078Z,98141.78
2023-04-16T04:08:30.492Z,98242.94
2023-04-16T04:10:57.317Z,98055.63
2023-04-16T04:13:24.967Z,98327.31
2023-04-16T04:15:53.061Z,98176.13
2023-04-16T04:18:20.874Z,98176.91
2023-04-16T04:20:47.665Z,98358.25
2023-04-16T04:23:16.942Z,98403.41
2023-04-16T04:26:05.626Z,98339.03
2023-04-16T04:28:32.837Z,98257.94
2023-04-16T04:31:01.010Z,98206.72
2023-04-16T04:33:30.581Z,98284.94
2023-04-16T04:35:57.348Z,98354.94
2023-04-16T04:38:25.431Z,98356.50
2023-04-16T04:40:53.288Z,98282.38
2023-04-16T04:43:26.918Z,98354.53
2023-04-16T04:45:53.685Z,98317.66
2023-04-16T04:48:26.313Z,98357.44
2023-04-16T04:50:54.101Z,98356.81
2023-04-16T04:53:21.174Z,98375.84
2023-04-16T04:55:50.909Z,98114.31
2023-04-16T04:58:19.694Z,98279.38
2023-04-16T05:00:46.488Z,98351.78
2023-04-16T05:03:13.432Z,98368.16
2023-04-16T05:05:41.186Z,98092.75
2023-04-16T05:08:33.001Z,98367.16
2023-04-16T05:10:59.970Z,98361.69
2023-04-16T05:13:27.156Z,98308.53
2023-04-16T05:15:53.919Z,98302.00
2023-04-16T05:18:20.875Z,98384.38
2023-04-16T05:20:47.625Z,98301.59
2023-04-16T05:23:15.773Z,98228.03
2023-04-16T05:26:26.473Z,98382.94
2023-04-16T05:28:53.126Z,98315.94
2023-04-16T05:31:19.784Z,98395.81
2023-04-16T05:34:14.883Z,98396.84
2023-04-16T05:36:41.768Z,98393.38
2023-04-16T05:39:08.684Z,98399.91
2023-04-16T05:41:35.854Z,98312.25
2023-04-16T05:44:16.054Z,98334.53
2023-04-16T05:46:42.959Z,98340.88
2023-04-16T05:49:11.743Z,98385.63
2023-04-16T05:51:42.160Z,98284.84
2023-04-16T05:54:09.112Z,98252.59
2023-04-16T05:56:36.002Z,98291.25
2023-04-16T05:59:02.955Z,98260.06
2023-04-16T06:01:29.965Z,98428.06
2023-04-16T06:03:56.678Z,98445.00
2023-04-16T06:06:23.444Z,98424.63
2023-04-16T06:09:42.168Z,98417.69
2023-04-16T06:12:09.467Z,98371.47
2023-04-16T06:14:36.469Z,98337.19
2023-04-16T06:17:03.085Z,98115.59
2023-04-16T06:19:29.866Z,98264.25
2023-04-16T06:21:57.084Z,98279.09
2023-04-16T06:24:24.156Z,98140.66
2023-04-16T06:26:50.808Z,98296.63
2023-04-16T06:29:17.686Z,97866.53
2023-04-16T06:31:45.986Z,98415.91
2023-04-16T06:34:12.727Z,98405.75
2023-04-16T06:37:17.070Z,98434.59
2023-04-16T06:39:43.888Z,98443.81
2023-04-16T06:42:54.507Z,98438.34
2023-04-16T06:45:25.267Z,98379.22
2023-04-16T06:47:52.454Z,98461.81
2023-04-16T06:50:34.875Z,98361.63
2023-04-16T06:53:02.331Z,98306.88
2023-04-16T06:55:29.172Z,98441.25
2023-04-16T07:02:14.376Z,98400.16
2023-04-16T07:04:41.380Z,98452.91
2023-04-16T07:07:19.355Z,98454.13
2023-04-16T07:09:51.788Z,98465.16
2023-04-16T07:12:19.970Z,98462.47
2023-04-16T07:14:48.312Z,98473.25
2023-04-16T07:17:15.075Z,98319.06
2023-04-16T07:20:01.149Z,98458.47
2023-04-16T07:22:27.761Z,98462.59
2023-04-16T07:24:56.537Z,98099.53
2023-04-16T07:27:23.273Z,98373.88
2023-04-16T07:29:50.653Z,98480.59
2023-04-16T07:32:17.433Z,98475.50
2023-04-16T07:34:44.180Z,98379.66
2023-04-16T07:40:56.983Z,98472.41
2023-04-16T07:43:29.186Z,98309.09
2023-04-16T07:45:56.079Z,98064.78
2023-04-16T07:48:22.800Z,98355.28
2023-04-16T07:50:50.252Z,98490.91
2023-04-16T07:53:16.879Z,98242.09
2023-04-16T07:55:43.598Z,98386.19
2023-04-16T07:58:14.401Z,98380.00
2023-04-16T08:00:41.333Z,98094.81
2023-04-16T08:03:08.205Z,98398.88
2023-04-16T08:05:35.152Z,98410.06
2023-04-16T08:08:02.229Z,98416.81
2023-04-16T08:10:47.895Z,98423.97
2023-04-16T08:13:14.484Z,98421.13
2023-04-16T08:15:41.307Z,98491.50
2023-04-16T08:18:12.874Z,98361.63
2023-04-16T08:20:39.635Z,98508.50
2023-04-16T08:27:33.108Z,98501.75
2023-04-16T08:30:07.809Z,98468.84
2023-04-16T08:32:34.754Z,98276.88
2023-04-16T08:39:01.519Z,98504.03
2023-04-16T08:45:27.468Z,98519.16
2023-04-16T08:48:23.212Z,98506.06
2023-04-16T08:50:53.027Z,98460.25
2023-04-16T08:53:39.573Z,98217.22
2023-04-16T08:56:09.996Z,98354.72
2023-04-16T08:58:38.371Z,98441.19
2023-04-16T09:01:06.204Z,98207.59
2023-04-16T09:03:35.767Z,98233.66
2023-04-16T09:10:03.445Z,98524.66
2023-04-16T09:12:31.402Z,98453.88
2023-04-16T09:15:01.216Z,98449.78
2023-04-16T09:21:37.734Z,98523.63
2023-04-16T09:24:09.882Z,98534.47
2023-04-16T09:26:36.906Z,98576.00
2023-04-16T09:33:25.652Z,98537.19
2023-04-16T09:40:00.125Z,98481.38
2023-04-16T09:42:31.914Z,98553.25
2023-04-16T09:45:22.713Z,98542.41
2023-04-16T09:48:03.001Z,98486.25
2023-04-16T09:50:29.803Z,98260.56
2023-04-16T09:52:56.513Z,98503.63
2023-04-16T09:55:27.069Z,98545.84
2023-04-16T09:58:02.579Z,98531.13
2023-04-16T10:00:31.132Z,98570.00
2023-04-16T10:03:07.534Z,98514.59
2023-04-16T10:05:34.849Z,98492.22
2023-04-16T10:08:18.962Z,98578.84
2023-04-16T10:10:45.918Z,98327.13
2023-04-16T10:13:17.684Z,98451.38
2023-04-16T10:15:44.857Z,98580.72
2023-04-16T10:18:11.829Z,98577.13
2023-04-16T10:28:38.239Z,98332.50
2023-04-16T10:31:08.211Z,98422.16
2023-04-16T10:33:39.526Z,98583.16
2023-04-16T10:36:24.180Z,98407.34
2023-04-16T10:38:54.823Z,98586.75
2023-04-16T10:41:43.635Z,98582.44
2023-04-16T10:44:11.375Z,98499.84
2023-04-16T10:46:43.689Z,98382.66
2023-04-16T10:49:23.952Z,98599.81
2023-04-16T10:52:32.432Z,98586.97
2023-04-16T10:55:00.560Z,98589.84
2023-04-16T10:57:29.238Z,98451.91
2023-04-16T10:59:56.331Z,98437.25
2023-04-16T11:02:29.248Z,98444.78
2023-04-16T11:05:43.943Z,98593.59
2023-04-16T11:08:16.729Z,98549.38
2023-04-16T11:10:43.361Z,98593.63
2023-04-16T11:13:12.930Z,98590.53
2023-04-16T11:15:39.636Z,98475.75
2023-04-16T11:18:07.319Z,98562.09
2023-04-16T11:20:34.437Z,98494.50
2023-04-16T11:23:01.140Z,98612.16
2023-04-16T11:25:35.155Z,98571.47
2023-04-16T11:28:02.348Z,98514.94
2023-04-16T11:30:31.509Z,98468.09
2023-04-16T11:32:58.278Z,98521.56
2023-04-16T11:40:26.120Z,98587.03
2023-04-16T11:47:24.089Z,98591.72
2023-04-16T11:49:51.574Z,98593.81
2023-04-16T11:52:44.134Z,98587.06
2023-04-16T11:55:11.114Z,98454.44
2023-04-16T11:57:54.301Z,98486.59
2023-04-16T12:00:24.319Z,98459.16
2023-04-16T12:02:54.121Z,98410.66
2023-04-16T12:05:28.786Z,98604.47
2023-04-16T12:07:55.973Z,98551.44
2023-04-16T12:11:11.917Z,98592.41
2023-04-16T12:13:40.321Z,98549.63
2023-04-16T12:16:18.877Z,98594.44
2023-04-16T12:19:04.078Z,98557.81
2023-04-16T12:21:41.710Z,98562.31
2023-04-16T12:24:11.446Z,98303.22
2023-04-16T12:26:52.078Z,98458.19
2023-04-16T12:29:21.848Z,98491.13
2023-04-16T12:34:50.886Z,98580.13
2023-04-16T12:37:17.704Z,98326.94
2023-04-16T12:39:45.480Z,98530.22
2023-04-16T12:42:13.153Z,98458.63
2023-04-16T12:44:42.525Z,98457.75
2023-04-16T12:47:09.055Z,98519.53
2023-04-16T12:49:36.732Z,98601.59
2023-04-16T12:52:16.758Z,98359.63
2023-04-16T12:54:43.421Z,98605.91
2023-04-16T12:57:10.147Z,98612.25
2023-04-16T12:59:58.334Z,98399.25
2023-04-16T13:02:26.068Z,98616.06
2023-04-16T13:05:00.045Z,98622.47
2023-04-16T13:15:28.170Z,98605.09
2023-04-16T13:17:54.826Z,98516.47
2023-04-16T13:20:23.913Z,98467.59
2023-04-16T13:23:19.387Z,98600.97
2023-04-16T13:25:53.483Z,98565.78
2023-04-16T13:28:21.725Z,98604.28
2023-04-16T13:30:48.778Z,98622.47
2023-04-16T13:33:19.739Z,98418.50
2023-04-16T13:35:49.712Z,98614.72
2023-04-16T13:38:29.587Z,98548.84
2023-04-16T13:44:49.367Z,98458.41
2023-04-16T13:47:49.242Z,98159.84
2023-04-16T13:50:16.672Z,98352.69
2023-04-16T13:52:43.482Z,98467.44
2023-04-16T13:55:34.709Z,98455.75
2023-04-16T13:58:10.959Z,98604.06
2023-04-16T14:00:44.355Z,98208.03
2023-04-16T14:07:39.578Z,98607.13
2023-04-16T14:10:06.920Z,98180.31
2023-04-16T14:12:33.805Z,98439.00
2023-04-16T14:15:02.218Z,98589.50
2023-04-16T14:25:22.282Z,98485.84
2023-04-16T14:28:01.859Z,98621.84
2023-04-16T14:30:28.726Z,98483.56
2023-04-16T14:32:55.908Z,98468.84
2023-04-16T14:35:23.274Z,98493.38
2023-04-16T14:37:52.569Z,98443.47
2023-04-16T14:40:19.520Z,98632.84
2023-04-16T14:42:46.301Z,98298.41
2023-04-16T14:45:13.356Z,98496.00
2023-04-16T14:47:46.122Z,98611.09
2023-04-16T14:50:13.486Z,98471.03
2023-04-16T14:52:40.639Z,98622.44
2023-04-16T14:55:07.727Z,98609.94
2023-04-16T14:57:35.312Z,98327.03
2023-04-16T15:00:10.504Z,98631.47
2023-04-16T15:02:48.213Z,98565.59
2023-04-16T15:05:15.184Z,98456.78
2023-04-16T15:11:49.768Z,98616.47
2023-04-16T15:14:43.204Z,98604.59
2023-04-16T15:17:10.239Z,98413.25
2023-04-16T15:24:08.969Z,98602.50
2023-04-16T15:30:48.713Z,98600.69
2023-04-16T15:33:15.581Z,98349.88
2023-04-16T15:35:42.501Z,98593.19
2023-04-16T15:38:09.320Z,98545.13
2023-04-16T15:40:36.950Z,98607.75
2023-04-16T15:47:21.390Z,98486.41
2023-04-16T15:54:03.917Z,98385.47
2023-04-16T15:56:31.592Z,98372.56
2023-04-16T16:03:07.618Z,98604.97
2023-04-16T16:06:21.169Z,98605.00
2023-04-16T16:09:13.010Z,98604.03
2023-04-16T16:11:42.051Z,98486.22
2023-04-16T16:14:09.281Z,98362.59
2023-04-16T16:16:36.482Z,98608.53
2023-04-16T16:23:05.569Z,98610.31
2023-04-16T16:25:32.732Z,98608.25
2023-04-16T16:27:59.750Z,98329.66
2023-04-16T16:30:29.569Z,98519.88
2023-04-16T16:32:56.498Z,98602.88
2023-04-16T16:39:26.797Z,98564.84
2023-04-16T16:41:53.640Z,98605.53
2023-04-16T16:44:48.280Z,98601.81
2023-04-16T16:47:15.048Z,98585.34
2023-04-16T16:55:04.432Z,98605.53
2023-04-16T17:01:32.240Z,98305.16
2023-04-16T17:16:19.938Z,98613.34
2023-04-16T17:18:59.419Z,98592.53
2023-04-16T17:21:28.488Z,98464.44
2023-04-16T17:23:57.500Z,98501.06
2023-04-16T17:26:24.325Z,98290.25
2023-04-16T17:28:51.081Z,98441.44
2023-04-16T17:31:18.246Z,98486.00
2023-04-16T17:37:56.281Z,98637.97
2023-04-16T17:40:23.355Z,98579.25
2023-04-16T17:42:50.300Z,98500.94
2023-04-16T17:49:17.123Z,98582.94
2023-04-16T17:52:19.224Z,98650.03
2023-04-16T17:54:46.007Z,98496.00
2023-04-16T17:57:12.648Z,98498.28
2023-04-16T17:59:39.317Z,98539.84
2023-04-16T18:02:06.413Z,98584.19
2023-04-16T18:04:33.717Z,98681.00
2023-04-16T18:07:00.702Z,98523.25
2023-04-16T18:09:57.792Z,98668.56
2023-04-16T18:12:24.678Z,98610.41
2023-04-16T18:14:51.448Z,98671.38
2023-04-16T18:17:33.035Z,98586.25
2023-04-16T18:20:01.546Z,98699.25
2023-04-16T18:22:53.288Z,98673.66
2023-04-16T18:25:29.433Z,98608.56
2023-04-16T18:28:00.218Z,98424.31
2023-04-16T18:30:40.645Z,98594.00
2023-04-16T18:33:34.302Z,98644.38
2023-04-16T18:35:54.340Z,98547.34
2023-04-16T18:38:21.289Z,98406.13
2023-04-16T18:45:58.311Z,98698.22
2023-04-16T19:00:12.696Z,98638.50
2023-04-16T19:06:40.054Z,98712.84
2023-04-16T19:09:06.921Z,98711.59
2023-04-16T19:11:34.628Z,98429.88
2023-04-16T19:18:01.879Z,98583.41
2023-04-16T19:20:37.851Z,98718.66
2023-04-16T19:27:19.100Z,98721.03
2023-04-16T19:29:47.546Z,98434.34
2023-04-16T19:32:14.433Z,98619.81
2023-04-16T19:34:41.212Z,98587.38
2023-04-16T19:37:08.053Z,98580.78
2023-04-16T19:39:34.884Z,98603.44
2023-04-16T19:42:04.900Z,98503.41
2023-04-16T19:44:32.383Z,98445.19
2023-04-16T19:50:45.526Z,98716.09
2023-04-16T19:57:12.099Z,98635.03
2023-04-16T19:59:38.983Z,98710.31
2023-04-16T20:02:41.305Z,98707.25
2023-04-16T20:09:52.169Z,98711.47
2023-04-16T20:16:24.254Z,98723.31
2023-04-16T20:19:22.307Z,98721.66
2023-04-16T20:21:49.119Z,98606.19
2023-04-16T20:24:15.933Z,98606.13
2023-04-16T20:34:42.935Z,98575.09
2023-04-16T20:37:30.011Z,98720.31
2023-04-16T20:39:56.910Z,98740.59
2023-04-16T20:42:26.508Z,98747.75
2023-04-16T20:44:56.777Z,98573.56
2023-04-16T20:47:23.830Z,98441.94
2023-04-16T20:53:40.865Z,98653.47
2023-04-16T20:56:09.195Z,98652.28
2023-04-16T21:02:36.518Z,98644.63
2023-04-16T21:05:29.232Z,98722.84
2023-04-16T21:07:56.065Z,98426.81
2023-04-16T21:10:22.657Z,98609.38
2023-04-16T21:16:49.174Z,98636.94
2023-04-16T21:19:15.948Z,98460.06
2023-04-16T21:21:42.838Z,98582.56
2023-04-16T21:24:09.513Z,98416.91
2023-04-16T21:27:26.550Z,98721.63
2023-04-16T21:29:53.337Z,98476.69
2023-04-16T21:32:20.079Z,98648.91
2023-04-16T21:34:46.804Z,98634.91
2023-04-16T21:41:13.367Z,98590.25
2023-04-16T21:43:40.023Z,98483.50
2023-04-16T21:46:32.724Z,98721.16
2023-04-16T21:48:59.390Z,98701.75
2023-04-16T21:51:29.178Z,98566.41
2023-04-16T21:57:41.327Z,98639.38
2023-04-16T22:08:23.236Z,98662.06
2023-04-16T22:10:51.514Z,98704.41
2023-04-16T22:13:18.319Z,98717.66
2023-04-16T22:16:13.848Z,98698.13
2023-04-16T22:22:49.166Z,98626.13
2023-04-16T22:25:16.415Z,98583.22
2023-04-16T22:27:43.195Z,98541.97
2023-04-16T22:30:10.427Z,98605.97
2023-04-16T22:32:40.647Z,98591.72
2023-04-16T22:35:07.789Z,98430.56
2023-04-16T22:37:34.532Z,98533.84
2023-04-16T22:40:26.564Z,98714.63
2023-04-16T22:42:53.408Z,98569.91
2023-04-16T22:45:20.349Z,98237.44
2023-04-16T22:47:47.556Z,98424.84
2023-04-16T22:50:15.066Z,98416.53
2023-04-16T22:52:41.881Z,98476.88
2023-04-16T22:55:09.080Z,98712.31
2023-04-16T22:57:35.879Z,98579.16
2023-04-16T23:00:05.543Z,98703.91
2023-04-16T23:02:32.308Z,98559.56
2023-04-16T23:05:00.930Z,98578.81
2023-04-16T23:11:31.252Z,98655.00
2023-04-16T23:14:23.199Z,98459.59
2023-04-16T23:20:55.779Z,98704.44
2023-04-16T23:23:24.727Z,98706.66
2023-04-16T23:25:54.799Z,98637.69
2023-04-16T23:28:22.252Z,98385.03
2023-04-16T23:30:53.124Z,98710.31
2023-04-16T23:33:20.249Z,98660.13
2023-04-16T23:39:34.219Z,98642.25
2023-04-16T23:42:00.936Z,98639.72
2023-04-16T23:44:27.645Z,98701.47
2023-04-16T23:46:54.460Z,98480.88
2023-04-16T23:53:21.300Z,98483.28
2023-04-16T23:55:47.891Z,98703.56
2023-04-16T23:58:44.755Z,98702.44
